createdAt,value
2023-03-06T00:00:45.209Z,0.00
2023-03-06T00:01:45.226Z,0.00
2023-03-06T00:02:45.188Z,0.00
2023-03-06T00:03:45.200Z,0.00
2023-03-06T00:04:45.171Z,0.00
2023-03-06T00:05:45.235Z,0.00
2023-03-06T00:06:45.150Z,0.00
2023-03-06T00:07:45.132Z,0.00
2023-03-06T00:08:45.126Z,0.00
2023-03-06T00:09:45.101Z,0.00
2023-03-06T00:10:45.108Z,0.00
2023-03-06T00:11:45.090Z,0.00
2023-03-06T00:12:45.083Z,0.00
2023-03-06T00:13:45.069Z,0.00
2023-03-06T00:14:45.061Z,0.00
2023-03-06T00:15:45.057Z,0.00
2023-03-06T00:16:45.052Z,0.00
2023-03-06T00:17:45.019Z,0.00
2023-03-06T00:18:45.043Z,0.00
2023-03-06T00:19:45.007Z,0.00
2023-03-06T00:20:44.988Z,0.00
2023-03-06T00:21:44.999Z,0.00
2023-03-06T00:22:44.963Z,0.00
2023-03-06T00:23:44.989Z,0.00
2023-03-06T00:24:44.942Z,0.00
2023-03-06T00:25:44.945Z,0.00
2023-03-06T00:26:44.940Z,0.00
2023-03-06T00:27:44.928Z,0.00
2023-03-06T00:28:44.920Z,0.00
2023-03-06T00:29:44.906Z,0.00
2023-03-06T00:30:44.873Z,0.00
2023-03-06T00:31:44.980Z,0.00
2023-03-06T00:32:44.861Z,0.00
2023-03-06T00:33:44.863Z,0.00
2023-03-06T00:34:44.847Z,0.00
2023-03-06T00:35:44.862Z,0.00
2023-03-06T00:36:44.810Z,0.00
2023-03-06T00:37:44.825Z,0.00
2023-03-06T00:38:44.798Z,0.00
2023-03-06T00:39:44.800Z,0.00
2023-03-06T00:40:44.762Z,0.00
2023-03-06T00:41:46.908Z,0.00
2023-03-06T00:42:44.769Z,0.00
2023-03-06T00:43:44.761Z,0.00
2023-03-06T00:44:44.758Z,0.00
2023-03-06T00:45:44.788Z,0.00
2023-03-06T00:46:44.699Z,0.00
2023-03-06T00:47:44.712Z,0.00
2023-03-06T00:48:44.682Z,0.00
2023-03-06T00:49:44.689Z,0.00
2023-03-06T00:50:44.652Z,0.00
2023-03-06T00:51:44.700Z,0.00
2023-03-06T00:52:44.646Z,0.00
2023-03-06T00:53:44.650Z,0.00
2023-03-06T00:54:44.622Z,0.00
2023-03-06T00:55:44.626Z,0.00
2023-03-06T00:56:44.588Z,0.00
2023-03-06T00:57:44.617Z,0.00
2023-03-06T00:58:44.580Z,0.00
2023-03-06T00:59:44.573Z,0.00
2023-03-06T01:00:44.588Z,0.00
2023-03-06T01:01:44.738Z,0.00
2023-03-06T01:02:44.533Z,0.00
2023-03-06T01:03:44.558Z,0.00
2023-03-06T01:04:44.553Z,0.00
2023-03-06T01:05:44.568Z,0.00
2023-03-06T01:06:44.542Z,0.00
2023-03-06T01:07:44.528Z,0.00
2023-03-06T01:08:44.459Z,0.00
2023-03-06T01:09:44.538Z,0.00
2023-03-06T01:10:44.453Z,0.00
2023-03-06T01:11:44.452Z,0.00
2023-03-06T01:12:44.423Z,0.00
2023-03-06T01:13:44.436Z,0.00
2023-03-06T01:14:44.403Z,0.00
2023-03-06T01:15:44.448Z,0.00
2023-03-06T01:16:44.427Z,0.00
2023-03-06T01:17:44.376Z,0.00
2023-03-06T01:18:44.359Z,0.00
2023-03-06T01:19:44.374Z,0.00
2023-03-06T01:20:44.329Z,0.00
2023-03-06T01:21:44.358Z,0.00
2023-03-06T01:22:44.327Z,0.00
2023-03-06T01:23:44.329Z,0.00
2023-03-06T01:24:44.288Z,0.00
2023-03-06T01:25:44.304Z,0.00
2023-03-06T01:26:44.265Z,0.00
2023-03-06T01:27:44.288Z,0.00
2023-03-06T01:28:44.245Z,0.00
2023-03-06T01:29:44.252Z,0.00
2023-03-06T01:30:44.218Z,0.00
2023-03-06T01:31:44.327Z,0.00
2023-03-06T01:32:44.201Z,0.00
2023-03-06T01:33:44.208Z,0.00
2023-03-06T01:34:44.188Z,0.00
2023-03-06T01:35:44.203Z,0.00
2023-03-06T01:36:44.162Z,0.00
2023-03-06T01:37:44.176Z,0.00
2023-03-06T01:38:44.135Z,0.00
2023-03-06T01:39:44.145Z,0.00
2023-03-06T01:40:44.125Z,0.00
2023-03-06T01:41:44.138Z,0.00
2023-03-06T01:42:45.475Z,0.00
2023-03-06T01:43:44.099Z,0.00
2023-03-06T01:44:44.120Z,0.00
2023-03-06T01:45:44.096Z,0.00
2023-03-06T01:46:44.078Z,0.00
2023-03-06T01:47:44.068Z,0.00
2023-03-06T01:48:44.039Z,0.00
2023-03-06T01:49:44.033Z,0.00
2023-03-06T01:50:44.013Z,0.00
2023-03-06T01:51:44.028Z,0.00
2023-03-06T01:52:43.999Z,0.00
2023-03-06T01:53:44.016Z,0.00
2023-03-06T01:54:43.966Z,0.00
2023-03-06T01:55:43.979Z,0.00
2023-03-06T01:56:43.960Z,0.00
2023-03-06T01:57:43.967Z,0.00
2023-03-06T01:58:43.961Z,0.00
2023-03-06T01:59:43.937Z,0.00
2023-03-06T02:00:43.910Z,0.00
2023-03-06T02:01:43.912Z,0.00
2023-03-06T02:02:43.880Z,0.00
2023-03-06T02:03:43.891Z,0.00
2023-03-06T02:04:43.875Z,0.00
2023-03-06T02:05:43.886Z,0.00
2023-03-06T02:06:43.851Z,0.00
2023-03-06T02:07:43.851Z,0.00
2023-03-06T02:08:43.825Z,0.00
2023-03-06T02:09:43.824Z,0.00
2023-03-06T02:10:43.842Z,0.00
2023-03-06T02:11:43.881Z,0.00
2023-03-06T02:12:43.790Z,0.00
2023-03-06T02:13:43.775Z,0.00
2023-03-06T02:14:43.797Z,0.00
2023-03-06T02:15:43.754Z,0.00
2023-03-06T02:16:43.765Z,0.00
2023-03-06T02:17:43.741Z,0.00
2023-03-06T02:18:43.704Z,0.00
2023-03-06T02:19:43.719Z,0.00
2023-03-06T02:20:43.731Z,0.00
2023-03-06T02:21:43.687Z,0.00
2023-03-06T02:22:43.668Z,0.00
2023-03-06T02:23:43.678Z,0.00
2023-03-06T02:24:43.652Z,0.00
2023-03-06T02:25:43.678Z,0.00
2023-03-06T02:26:43.630Z,0.00
2023-03-06T02:27:43.635Z,0.00
2023-03-06T02:28:43.611Z,0.00
2023-03-06T02:29:43.620Z,0.00
2023-03-06T07:02:45.152Z,266.00
2023-03-06T07:03:44.351Z,243.00
2023-03-06T07:05:00.751Z,261.00
2023-03-06T07:05:44.302Z,297.00
2023-03-06T07:06:44.305Z,338.00
2023-03-06T07:07:44.272Z,364.00
2023-03-06T07:08:44.296Z,423.00
2023-03-06T07:09:44.277Z,456.00
2023-03-06T07:10:44.263Z,474.00
2023-03-06T07:11:44.238Z,510.00
2023-03-06T07:12:44.230Z,504.00
2023-03-06T07:13:44.206Z,497.00
2023-03-06T07:14:44.244Z,523.00
2023-03-06T07:15:44.207Z,544.00
2023-03-06T07:16:44.206Z,583.00
2023-03-06T07:17:44.184Z,628.00
2023-03-06T07:18:44.179Z,650.00
2023-03-06T07:19:44.165Z,693.00
2023-03-06T07:20:44.181Z,710.00
2023-03-06T07:21:44.141Z,726.00
2023-03-06T07:22:51.243Z,746.00
2023-03-06T07:23:44.109Z,763.00
2023-03-06T07:24:44.112Z,755.00
2023-03-06T07:25:44.090Z,759.00
2023-03-06T07:26:44.116Z,838.00
2023-03-06T07:27:48.774Z,868.00
2023-03-06T07:28:52.466Z,879.00
2023-03-06T07:29:44.080Z,882.00
2023-03-06T07:30:44.059Z,866.00
2023-03-06T07:31:44.077Z,877.00
2023-03-06T07:32:44.009Z,895.00
2023-03-06T07:33:44.006Z,909.00
2023-03-06T07:34:44.018Z,937.00
2023-03-06T07:35:44.034Z,1000.00
2023-03-06T07:36:43.987Z,1021.00
2023-03-06T07:37:43.982Z,986.00
2023-03-06T07:38:43.985Z,952.00
2023-03-06T07:39:43.977Z,904.00
2023-03-06T07:40:43.955Z,868.00
2023-03-06T07:41:43.922Z,880.00
2023-03-06T07:42:43.907Z,932.00
2023-03-06T07:43:43.912Z,963.00
2023-03-06T07:44:43.890Z,1026.00
2023-03-06T07:45:43.914Z,1109.00
2023-03-06T07:46:43.933Z,1136.00
2023-03-06T07:47:43.872Z,1101.00
2023-03-06T07:48:43.839Z,1008.00
2023-03-06T07:49:43.881Z,928.00
2023-03-06T07:50:43.824Z,936.00
2023-03-06T07:51:43.862Z,941.00
2023-03-06T07:52:43.805Z,988.00
2023-03-06T07:53:43.811Z,1012.00
2023-03-06T07:54:43.803Z,1014.00
2023-03-06T07:55:43.777Z,956.00
2023-03-06T07:56:43.759Z,994.00
2023-03-06T07:57:43.772Z,991.00
2023-03-06T07:58:43.733Z,973.00
2023-03-06T07:59:43.743Z,1018.00
2023-03-06T08:00:43.744Z,983.00
2023-03-06T08:01:43.768Z,983.00
2023-03-06T08:02:43.729Z,990.00
2023-03-06T08:03:43.715Z,958.00
2023-03-06T08:04:43.681Z,901.00
2023-03-06T08:05:43.673Z,914.00
2023-03-06T08:06:43.666Z,913.00
2023-03-06T08:07:43.664Z,911.00
2023-03-06T08:08:43.636Z,963.00
2023-03-06T08:09:43.661Z,1015.00
2023-03-06T08:10:43.612Z,1015.00
2023-03-06T08:11:43.642Z,1046.00
2023-03-06T08:12:43.605Z,1042.00
2023-03-06T08:13:43.613Z,1052.00
2023-03-06T08:14:43.583Z,997.00
2023-03-06T08:15:43.570Z,1038.00
2023-03-06T08:16:43.543Z,967.00
2023-03-06T08:17:43.562Z,1025.00
2023-03-06T08:18:45.846Z,1105.00
2023-03-06T08:19:43.522Z,1215.00
2023-03-06T08:20:43.513Z,1142.00
2023-03-06T08:21:43.512Z,1288.00
2023-03-06T08:22:43.477Z,1288.00
2023-03-06T08:23:43.487Z,1344.00
2023-03-06T08:24:43.488Z,1368.00
2023-03-06T08:25:43.495Z,1324.00
2023-03-06T08:26:43.443Z,1301.00
2023-03-06T08:27:43.452Z,1228.00
2023-03-06T08:28:43.426Z,1254.00
2023-03-06T08:29:43.420Z,1308.00
2023-03-06T08:30:43.391Z,1330.00
2023-03-06T08:31:43.475Z,1357.00
2023-03-06T08:32:43.403Z,1361.00
2023-03-06T08:33:43.389Z,1469.00
2023-03-06T08:34:43.356Z,1509.00
2023-03-06T08:35:43.397Z,1447.00
2023-03-06T08:36:43.333Z,1461.00
2023-03-06T08:37:43.379Z,1411.00
2023-03-06T08:38:43.327Z,1433.00
2023-03-06T08:39:43.312Z,1430.00
2023-03-06T08:40:43.286Z,1424.00
2023-03-06T08:41:43.312Z,1389.00
2023-03-06T08:42:43.270Z,1378.00
2023-03-06T08:43:43.284Z,1401.00
2023-03-06T08:44:43.247Z,1365.00
2023-03-06T08:45:43.263Z,1324.00
2023-03-06T08:46:43.226Z,1288.00
2023-03-06T08:47:43.219Z,1336.00
2023-03-06T08:48:43.236Z,1405.00
2023-03-06T08:49:43.204Z,1336.00
2023-03-06T08:50:43.177Z,1312.00
2023-03-06T08:51:43.188Z,1375.00
2023-03-06T08:52:43.166Z,1410.00
2023-03-06T08:53:44.235Z,1397.00
2023-03-06T08:54:43.167Z,1450.00
2023-03-06T08:55:43.181Z,1564.00
2023-03-06T08:56:43.110Z,1622.00
2023-03-06T08:57:43.111Z,1674.00
2023-03-06T08:58:43.106Z,1693.00
2023-03-06T08:59:43.097Z,1578.00
2023-03-06T09:00:43.120Z,1709.00
2023-03-06T09:01:43.142Z,1604.00
2023-03-06T09:02:43.071Z,1444.00
2023-03-06T09:03:43.061Z,1434.00
2023-03-06T09:04:43.045Z,1542.00
2023-03-06T09:05:43.051Z,1525.00
2023-03-06T09:06:43.000Z,1467.00
2023-03-06T09:07:43.027Z,1523.00
2023-03-06T09:08:42.992Z,1819.00
2023-03-06T09:09:42.975Z,1806.00
2023-03-06T09:10:43.043Z,1782.00
2023-03-06T09:11:42.960Z,1858.00
2023-03-06T09:12:50.731Z,1926.00
2023-03-06T09:13:42.977Z,1850.00
2023-03-06T09:14:42.918Z,1966.00
2023-03-06T09:15:42.920Z,1706.00
2023-03-06T09:16:42.917Z,1723.00
2023-03-06T09:17:43.049Z,1746.00
2023-03-06T09:18:42.883Z,1966.00
2023-03-06T09:19:42.895Z,1711.00
2023-03-06T09:20:42.916Z,1298.00
2023-03-06T09:21:42.858Z,1157.00
2023-03-06T09:22:42.828Z,840.00
2023-03-06T09:23:42.844Z,866.00
2023-03-06T09:24:42.817Z,1044.00
2023-03-06T09:25:42.818Z,1104.00
2023-03-06T09:26:46.435Z,1321.00
2023-03-06T09:27:42.791Z,1189.00
2023-03-06T09:28:42.768Z,1495.00
2023-03-06T09:29:42.835Z,1759.00
2023-03-06T09:30:42.789Z,1710.00
2023-03-06T09:31:42.749Z,1876.00
2023-03-06T09:32:42.774Z,1546.00
2023-03-06T09:33:42.729Z,1215.00
2023-03-06T09:34:42.707Z,1136.00
2023-03-06T09:35:42.759Z,1345.00
2023-03-06T09:36:55.960Z,1912.00
2023-03-06T09:37:42.711Z,2031.00
2023-03-06T09:38:42.686Z,1658.00
2023-03-06T09:39:42.673Z,1508.00
2023-03-06T09:40:42.648Z,1550.00
2023-03-06T09:41:42.652Z,1193.00
2023-03-06T09:42:42.617Z,927.00
2023-03-06T09:43:42.646Z,583.00
2023-03-06T09:44:42.604Z,680.00
2023-03-06T09:45:42.697Z,807.00
2023-03-06T09:46:42.573Z,861.00
2023-03-06T09:47:42.590Z,784.00
2023-03-06T09:48:42.573Z,565.00
2023-03-06T09:49:42.566Z,464.00
2023-03-06T09:50:42.535Z,772.00
2023-03-06T09:51:42.561Z,1320.00
2023-03-06T09:52:42.504Z,1769.00
2023-03-06T09:53:42.515Z,1975.00
2023-03-06T09:54:42.516Z,2078.00
2023-03-06T09:55:42.492Z,2050.00
2023-03-06T09:56:42.468Z,2040.00
2023-03-06T09:57:42.469Z,1974.00
2023-03-06T09:58:42.469Z,1419.00
2023-03-06T09:59:42.440Z,927.00
2023-03-06T10:00:42.436Z,1248.00
2023-03-06T10:01:42.434Z,1484.00
2023-03-06T10:02:42.472Z,2010.00
2023-03-06T10:03:42.417Z,2134.00
2023-03-06T10:04:42.458Z,2130.00
2023-03-06T10:05:42.378Z,2095.00
2023-03-06T10:06:42.379Z,1907.00
2023-03-06T10:07:42.358Z,1207.00
2023-03-06T10:08:42.337Z,1286.00
2023-03-06T10:09:42.340Z,1687.00
2023-03-06T10:10:42.317Z,1449.00
2023-03-06T10:11:42.333Z,1744.00
2023-03-06T10:12:42.295Z,1921.00
2023-03-06T10:13:42.294Z,1879.00
2023-03-06T10:14:42.267Z,1620.00
2023-03-06T10:15:42.351Z,1461.00
2023-03-06T10:16:42.269Z,1400.00
2023-03-06T10:17:45.216Z,1390.00
2023-03-06T10:18:42.229Z,1517.00
2023-03-06T10:19:42.266Z,1999.00
2023-03-06T10:20:42.205Z,2035.00
2023-03-06T10:21:42.212Z,2189.00
2023-03-06T10:22:42.852Z,2118.00
2023-03-06T10:23:42.190Z,2167.00
2023-03-06T10:24:42.166Z,2180.00
2023-03-06T10:25:42.168Z,2190.00
2023-03-06T10:26:42.388Z,2065.00
2023-03-06T10:27:42.144Z,2322.00
2023-03-06T10:28:42.114Z,2190.00
2023-03-06T10:29:43.655Z,2254.00
2023-03-06T10:30:42.209Z,2105.00
2023-03-06T10:31:42.106Z,2304.00
2023-03-06T10:32:48.670Z,2386.00
2023-03-06T10:33:42.102Z,2346.00
2023-03-06T10:34:42.116Z,2668.00
2023-03-06T10:35:42.150Z,2582.00
2023-03-06T10:36:42.039Z,2638.00
2023-03-06T10:37:42.062Z,2357.00
2023-03-06T10:38:42.009Z,2233.00
2023-03-06T10:39:42.026Z,1999.00
2023-03-06T10:40:42.003Z,1897.00
2023-03-06T10:41:41.999Z,1862.00
2023-03-06T10:42:42.011Z,1829.00
2023-03-06T10:43:41.969Z,1989.00
2023-03-06T10:44:41.946Z,1952.00
2023-03-06T10:45:48.899Z,1797.00
2023-03-06T10:46:41.987Z,1435.00
2023-03-06T10:47:41.943Z,2226.00
2023-03-06T10:48:42.423Z,2701.00
2023-03-06T10:49:41.921Z,2317.00
2023-03-06T10:50:41.889Z,2751.00
2023-03-06T10:51:41.912Z,2423.00
2023-03-06T10:52:41.860Z,2065.00
2023-03-06T10:53:41.877Z,2077.00
2023-03-06T10:54:41.837Z,2236.00
2023-03-06T10:55:41.886Z,2164.00
2023-03-06T10:56:41.818Z,2035.00
2023-03-06T10:57:41.836Z,1834.00
2023-03-06T10:58:41.794Z,1696.00
2023-03-06T10:59:42.718Z,1647.00
2023-03-06T11:00:41.776Z,1610.00
2023-03-06T11:01:41.912Z,1567.00
2023-03-06T11:02:41.769Z,1510.00
2023-03-06T11:03:41.779Z,1263.00
2023-03-06T11:04:41.793Z,1742.00
2023-03-06T11:05:41.734Z,1885.00
2023-03-06T11:06:41.710Z,1646.00
2023-03-06T11:07:41.737Z,1289.00
2023-03-06T11:08:41.693Z,1767.00
2023-03-06T11:09:41.771Z,1607.00
2023-03-06T11:10:41.669Z,1185.00
2023-03-06T11:11:41.710Z,1943.00
2023-03-06T11:12:41.644Z,2984.00
2023-03-06T11:13:41.655Z,2707.00
2023-03-06T11:14:41.639Z,2091.00
2023-03-06T11:15:41.684Z,2635.00
2023-03-06T11:16:41.614Z,3268.00
2023-03-06T11:17:41.612Z,3876.00
2023-03-06T11:18:41.574Z,2795.00
2023-03-06T11:19:41.606Z,2798.00
2023-03-06T11:20:51.353Z,3030.00
2023-03-06T11:21:41.565Z,3838.00
2023-03-06T11:22:41.570Z,3313.00
2023-03-06T11:23:41.587Z,3307.00
2023-03-06T11:24:41.523Z,3136.00
2023-03-06T11:25:41.743Z,3373.00
2023-03-06T11:26:41.514Z,2678.00
2023-03-06T11:27:41.498Z,2965.00
2023-03-06T11:28:41.472Z,2870.00
2023-03-06T11:29:41.514Z,2978.00
2023-03-06T11:30:41.453Z,2912.00
2023-03-06T11:31:41.546Z,2622.00
2023-03-06T11:32:41.504Z,2514.00
2023-03-06T11:33:41.439Z,2746.00
2023-03-06T11:34:41.404Z,2815.00
2023-03-06T11:35:41.469Z,2727.00
2023-03-06T11:36:41.393Z,2490.00
2023-03-06T11:37:41.451Z,2227.00
2023-03-06T11:38:41.372Z,2004.00
2023-03-06T11:39:41.399Z,1874.00
2023-03-06T11:40:41.347Z,1697.00
2023-03-06T11:41:41.343Z,1547.00
2023-03-06T11:42:41.334Z,1464.00
2023-03-06T11:43:41.347Z,1430.00
2023-03-06T11:44:41.317Z,1401.00
2023-03-06T11:45:41.297Z,1450.00
2023-03-06T11:46:41.342Z,1680.00
2023-03-06T11:47:41.272Z,1768.00
2023-03-06T11:48:41.296Z,1834.00
2023-03-06T11:49:41.278Z,1641.00
2023-03-06T11:50:41.261Z,1729.00
2023-03-06T11:51:41.235Z,1847.00
2023-03-06T11:52:41.224Z,1665.00
2023-03-06T11:53:41.845Z,1928.00
2023-03-06T11:54:41.210Z,2010.00
2023-03-06T11:55:41.199Z,1960.00
2023-03-06T11:56:41.197Z,2400.00
2023-03-06T11:57:41.168Z,3136.00
2023-03-06T11:58:41.169Z,3359.00
2023-03-06T11:59:41.156Z,2903.00
2023-03-06T12:00:41.161Z,2543.00
2023-03-06T12:01:41.201Z,2354.00
2023-03-06T12:02:41.126Z,2389.00
2023-03-06T12:03:41.106Z,2531.00
2023-03-06T12:04:41.110Z,2367.00
2023-03-06T12:05:41.177Z,2230.00
2023-03-06T12:06:41.101Z,2145.00
2023-03-06T12:07:41.063Z,2097.00
2023-03-06T12:08:41.071Z,2003.00
2023-03-06T12:09:41.031Z,1799.00
2023-03-06T12:10:41.050Z,1778.00
2023-03-06T12:11:41.015Z,2014.00
2023-03-06T12:12:41.054Z,1780.00
2023-03-06T12:13:40.994Z,1746.00
2023-03-06T12:14:41.035Z,1751.00
2023-03-06T12:15:40.995Z,1639.00
2023-03-06T12:16:41.095Z,1623.00
2023-03-06T12:17:40.945Z,1649.00
2023-03-06T12:18:40.964Z,1536.00
2023-03-06T12:19:40.932Z,1566.00
2023-03-06T12:20:40.932Z,1468.00
2023-03-06T12:21:40.907Z,1371.00
2023-03-06T12:22:40.958Z,1314.00
2023-03-06T12:23:40.904Z,1249.00
2023-03-06T12:24:40.893Z,1226.00
2023-03-06T12:25:40.893Z,1182.00
2023-03-06T12:26:40.861Z,1322.00
2023-03-06T12:27:40.863Z,1426.00
2023-03-06T12:28:40.864Z,1384.00
2023-03-06T12:29:40.818Z,1331.00
2023-03-06T12:30:40.832Z,1327.00
2023-03-06T12:31:40.855Z,1515.00
2023-03-06T12:32:40.906Z,1398.00
2023-03-06T12:33:40.791Z,1557.00
2023-03-06T12:34:40.768Z,1888.00
2023-03-06T12:35:40.770Z,1900.00
2023-03-06T12:36:40.756Z,2608.00
2023-03-06T12:37:40.744Z,2593.00
2023-03-06T12:38:40.755Z,3102.00
2023-03-06T12:39:40.717Z,2479.00
2023-03-06T12:40:40.719Z,2072.00
2023-03-06T12:41:40.705Z,1818.00
2023-03-06T12:42:40.695Z,1461.00
2023-03-06T12:43:40.674Z,1331.00
2023-03-06T12:44:40.719Z,1287.00
2023-03-06T12:45:40.682Z,1404.00
2023-03-06T12:46:40.646Z,1351.00
2023-03-06T12:47:40.621Z,1437.00
2023-03-06T12:48:40.626Z,1473.00
2023-03-06T12:49:40.601Z,1597.00
2023-03-06T12:50:40.626Z,1771.00
2023-03-06T12:51:40.586Z,2134.00
2023-03-06T12:52:40.582Z,2238.00
2023-03-06T12:53:40.560Z,2661.00
2023-03-06T12:54:40.588Z,3070.00
2023-03-06T12:55:40.538Z,2895.00
2023-03-06T12:56:40.539Z,2605.00
2023-03-06T12:57:40.516Z,2352.00
2023-03-06T12:58:40.536Z,2254.00
2023-03-06T12:59:40.508Z,1652.00
2023-03-06T13:00:40.525Z,2231.00
2023-03-06T13:01:40.554Z,2788.00
2023-03-06T13:02:40.513Z,1972.00
2023-03-06T13:03:40.456Z,1995.00
2023-03-06T13:04:40.454Z,2018.00
2023-03-06T13:05:40.430Z,2391.00
2023-03-06T13:06:49.736Z,2431.00
2023-03-06T13:07:40.437Z,2260.00
2023-03-06T13:08:41.433Z,2063.00
2023-03-06T13:09:40.390Z,1910.00
2023-03-06T13:10:40.402Z,1736.00
2023-03-06T13:11:40.376Z,1597.00
2023-03-06T13:12:40.384Z,1513.00
2023-03-06T13:13:40.365Z,1579.00
2023-03-06T13:14:48.704Z,1639.00
2023-03-06T13:15:40.345Z,1686.00
2023-03-06T13:16:40.363Z,1712.00
2023-03-06T13:17:40.315Z,1829.00
2023-03-06T13:18:40.319Z,1972.00
2023-03-06T13:19:40.330Z,2034.00
2023-03-06T13:20:40.290Z,2214.00
2023-03-06T13:21:40.261Z,2404.00
2023-03-06T13:22:40.291Z,2582.00
2023-03-06T13:23:41.369Z,2708.00
2023-03-06T13:24:40.286Z,2837.00
2023-03-06T13:25:40.390Z,2751.00
2023-03-06T13:26:40.221Z,2615.00
2023-03-06T13:27:40.219Z,2709.00
2023-03-06T13:28:40.251Z,2839.00
2023-03-06T13:29:40.275Z,2331.00
2023-03-06T13:30:40.362Z,3338.00
2023-03-06T13:31:40.218Z,2762.00
2023-03-06T13:32:40.314Z,3207.00
2023-03-06T13:33:40.131Z,2742.00
2023-03-06T13:34:40.162Z,1893.00
2023-03-06T13:35:40.139Z,1667.00
2023-03-06T13:36:40.368Z,1459.00
2023-03-06T13:37:40.084Z,1277.00
2023-03-06T13:38:40.080Z,1232.00
2023-03-06T13:39:40.064Z,1184.00
2023-03-06T13:40:40.064Z,1203.00
2023-03-06T13:41:40.061Z,1182.00
2023-03-06T13:42:40.122Z,1125.00
2023-03-06T13:43:40.020Z,1076.00
2023-03-06T13:44:40.052Z,934.00
2023-03-06T13:45:40.028Z,843.00
2023-03-06T13:46:40.027Z,785.00
2023-03-06T13:48:05.851Z,687.00
2023-03-06T13:48:45.568Z,612.00
2023-03-06T13:49:40.098Z,548.00
2023-03-06T13:50:39.968Z,549.00
2023-03-06T13:51:39.939Z,499.00
2023-03-06T13:52:39.969Z,505.00
2023-03-06T13:53:40.126Z,484.00
2023-03-06T13:54:39.941Z,517.00
2023-03-06T13:55:39.894Z,633.00
2023-03-06T13:56:39.895Z,633.00
2023-03-06T13:57:39.871Z,568.00
2023-03-06T13:58:39.882Z,576.00
2023-03-06T13:59:39.972Z,557.00
2023-03-06T14:00:39.857Z,530.00
2023-03-06T14:01:39.862Z,484.00
2023-03-06T14:02:39.881Z,446.00
2023-03-06T14:03:39.864Z,500.00
2023-03-06T14:04:39.839Z,518.00
2023-03-06T14:05:39.805Z,669.00
2023-03-06T14:06:39.796Z,699.00
2023-03-06T14:07:39.766Z,688.00
2023-03-06T14:08:39.774Z,694.00
2023-03-06T14:09:39.744Z,833.00
2023-03-06T14:10:39.745Z,948.00
2023-03-06T14:11:39.748Z,1129.00
2023-03-06T14:12:39.728Z,1262.00
2023-03-06T14:13:47.239Z,1415.00
2023-03-06T14:14:39.710Z,1323.00
2023-03-06T14:15:39.717Z,1194.00
2023-03-06T14:16:49.417Z,1235.00
2023-03-06T14:17:39.689Z,1051.00
2023-03-06T14:18:39.666Z,810.00
2023-03-06T14:19:39.636Z,886.00
2023-03-06T14:20:39.636Z,911.00
2023-03-06T14:21:39.628Z,996.00
2023-03-06T14:22:39.626Z,1122.00
2023-03-06T14:23:39.608Z,1137.00
2023-03-06T14:24:39.581Z,1121.00
2023-03-06T14:25:39.573Z,1131.00
2023-03-06T14:26:39.560Z,1123.00
2023-03-06T14:27:39.546Z,1131.00
2023-03-06T14:28:39.581Z,1035.00
2023-03-06T14:29:39.544Z,942.00
2023-03-06T14:30:39.526Z,985.00
2023-03-06T14:31:39.523Z,962.00
2023-03-06T14:32:39.584Z,1168.00
2023-03-06T14:33:39.515Z,1330.00
2023-03-06T14:34:39.496Z,1236.00
2023-03-06T14:35:39.497Z,1268.00
2023-03-06T14:36:39.465Z,1482.00
2023-03-06T14:37:39.447Z,1609.00
2023-03-06T14:38:39.455Z,1550.00
2023-03-06T14:39:39.415Z,1479.00
2023-03-06T14:40:39.434Z,1558.00
2023-03-06T14:41:39.396Z,1688.00
2023-03-06T14:42:39.403Z,1695.00
2023-03-06T14:43:39.373Z,1699.00
2023-03-06T14:44:39.384Z,1706.00
2023-03-06T14:45:39.357Z,1544.00
2023-03-06T14:46:39.459Z,1560.00
2023-03-06T14:47:39.365Z,1640.00
2023-03-06T14:48:39.352Z,1711.00
2023-03-06T14:49:39.318Z,1704.00
2023-03-06T14:50:40.978Z,1555.00
2023-03-06T14:51:39.330Z,1329.00
2023-03-06T14:52:39.301Z,1251.00
2023-03-06T14:53:39.293Z,1070.00
2023-03-06T14:54:39.290Z,1015.00
2023-03-06T14:55:39.247Z,965.00
2023-03-06T14:56:39.254Z,1025.00
2023-03-06T14:57:39.240Z,1151.00
2023-03-06T14:58:39.254Z,1203.00
2023-03-06T14:59:39.211Z,1052.00
2023-03-06T15:00:39.245Z,895.00
2023-03-06T15:01:39.228Z,877.00
2023-03-06T15:02:39.284Z,840.00
2023-03-06T15:03:39.173Z,807.00
2023-03-06T15:04:39.220Z,725.00
2023-03-06T15:05:39.136Z,630.00
2023-03-06T15:06:39.153Z,659.00
2023-03-06T15:07:39.123Z,720.00
2023-03-06T15:08:39.165Z,706.00
2023-03-06T15:09:39.112Z,659.00
2023-03-06T15:10:39.105Z,747.00
2023-03-06T15:11:39.080Z,817.00
2023-03-06T15:12:39.076Z,826.00
2023-03-06T15:13:39.056Z,803.00
2023-03-06T15:14:39.086Z,781.00
2023-03-06T15:15:39.079Z,799.00
2023-03-06T15:16:39.090Z,809.00
2023-03-06T15:17:39.032Z,788.00
2023-03-06T15:18:39.101Z,751.00
2023-03-06T15:19:38.988Z,685.00
2023-03-06T15:20:39.007Z,594.00
2023-03-06T15:21:38.963Z,576.00
2023-03-06T15:22:38.987Z,548.00
2023-03-06T15:23:38.936Z,578.00
2023-03-06T15:24:38.967Z,620.00
2023-03-06T15:25:38.944Z,669.00
2023-03-06T15:26:38.956Z,753.00
2023-03-06T15:27:38.907Z,811.00
2023-03-06T15:28:38.927Z,755.00
2023-03-06T15:29:38.893Z,716.00
2023-03-06T15:30:38.873Z,729.00
2023-03-06T15:31:39.048Z,735.00
2023-03-06T15:32:38.895Z,704.00
2023-03-06T15:33:38.837Z,602.00
2023-03-06T15:34:38.841Z,488.00
2023-03-06T15:35:38.885Z,388.00
2023-03-06T15:36:38.836Z,332.00
2023-03-06T15:37:38.823Z,297.00
2023-03-06T15:38:38.852Z,270.00
2023-03-06T15:39:38.786Z,303.00
2023-03-06T15:40:38.775Z,309.00
2023-03-06T15:41:38.761Z,234.00
2023-03-06T15:42:38.749Z,194.00
2023-03-06T15:43:38.761Z,192.00
2023-03-06T15:44:38.725Z,201.00
2023-03-06T15:45:38.758Z,217.00
2023-03-06T15:46:38.716Z,279.00
2023-03-06T15:47:38.710Z,334.00
2023-03-06T15:48:38.761Z,377.00
2023-03-06T15:49:38.755Z,397.00
2023-03-06T15:50:38.775Z,410.00
2023-03-06T15:51:38.665Z,416.00
2023-03-06T15:52:38.649Z,445.00
2023-03-06T15:53:38.646Z,469.00
2023-03-06T15:54:38.776Z,483.00
2023-03-06T15:55:38.680Z,497.00
2023-03-06T15:56:38.701Z,499.00
2023-03-06T15:57:38.756Z,500.00
2023-03-06T15:58:38.698Z,485.00
2023-03-06T15:59:38.580Z,433.00
2023-03-06T16:00:38.628Z,329.00
2023-03-06T16:01:38.568Z,330.00
2023-03-06T16:02:38.551Z,347.00
2023-03-06T16:03:38.536Z,398.00
2023-03-06T16:04:38.644Z,366.00
2023-03-06T16:05:38.618Z,330.00
2023-03-06T16:06:38.482Z,270.00
2023-03-06T16:07:38.483Z,232.00
2023-03-06T16:08:38.479Z,253.00
2023-03-06T16:09:38.470Z,244.00
2023-03-06T16:10:38.460Z,234.00
2023-03-06T16:11:43.723Z,220.00
2023-03-06T16:12:38.441Z,224.00
2023-03-06T16:13:38.476Z,209.00
2023-03-06T16:14:38.415Z,198.00
2023-03-06T16:15:38.411Z,222.00
2023-03-06T16:16:38.472Z,243.00
2023-03-06T16:17:38.380Z,229.00
2023-03-06T16:18:38.349Z,217.00
2023-03-06T16:19:38.365Z,279.00
2023-03-06T16:20:38.348Z,283.00
2023-03-06T16:21:38.335Z,275.00
2023-03-06T16:22:38.361Z,255.00
2023-03-06T16:23:38.324Z,317.00
2023-03-06T16:24:38.280Z,319.00
2023-03-06T16:25:38.312Z,298.00
2023-03-06T16:26:38.299Z,252.00
2023-03-06T16:27:38.304Z,244.00
2023-03-06T16:28:38.275Z,198.00
2023-03-06T16:29:38.248Z,140.00
2023-03-06T16:30:38.334Z,110.00
2023-03-06T16:31:38.223Z,119.00
2023-03-06T16:32:38.283Z,146.00
2023-03-06T16:33:38.242Z,164.00
2023-03-06T16:34:38.186Z,153.00
2023-03-06T16:35:38.276Z,128.00
2023-03-06T16:36:38.163Z,115.00
2023-03-06T16:37:38.194Z,100.00
2023-03-06T16:38:38.401Z,80.00
2023-03-06T16:39:38.159Z,115.00
2023-03-06T16:40:38.135Z,153.00
2023-03-06T16:41:38.147Z,134.00
2023-03-06T16:42:38.130Z,109.00
2023-03-06T16:43:38.099Z,138.00
2023-03-06T16:44:38.109Z,138.00
2023-03-06T16:45:38.132Z,95.00
2023-03-06T16:46:38.046Z,69.00
2023-03-06T16:47:38.064Z,97.00
2023-03-06T16:48:38.051Z,82.00
2023-03-06T16:49:38.137Z,50.00
2023-03-06T16:50:38.023Z,87.00
2023-03-06T16:51:38.028Z,128.00
2023-03-06T16:52:37.981Z,113.00
2023-03-06T16:53:37.991Z,76.00
2023-03-06T16:54:37.991Z,76.00
2023-03-06T16:55:37.959Z,84.00
2023-03-06T16:56:37.939Z,77.00
2023-03-06T16:57:37.954Z,69.00
2023-03-06T16:58:37.927Z,69.00